Terminal Aerodrome Forecast
Issued by NWS Charleston, WV

Current Version | Previous Version | Graphics & Text | Print | Product List | Glossary On
Versions: 1 2 3 4 5 6 7 8 9 10 11 12 13 14 15 16 17 18 19 20 21 22 23 24 25 26 27 28 29 30 31 32
332
FTUS41 KRLX 280846 AAD
TAFBKW
TAF AMD
KBKW 280846Z 2809/2906 15004KT 5SM -RA BR BKN040
     FM281200 VRB03KT 6SM BR SCT005 OVC020
     FM281600 26004KT 6SM -TSRA HZ OVC020CB=

USA.gov is the U.S. government's official web portal to all federal, state and local government web resources and services.